Euskara    
Meteorología y climatología de Navarra
Datos de la estación - Meteo Navarra

Estación de Urbasa GN

Altitud 886 m.


Datos desde el 18/10/2020 hasta el 19/10/2020 en horario solar
Los datos son PROVISIONALES

Anterior Página 1 de 1 Siguiente Descargar: Formato para Excel 2000 o superior   Formato csv   Formato para OpenOffice Calc
Fecha Temperatura Humedad relativa Radiación global Insolación Precipitación Vel. viento 10 m Vel. viento 10 m Dir. viento 10 m
°C % W/m² s l/m² m/s km/h °
18/10/2020 0:00 -1.4 97 0.0 0 0.0 0.3 1.0 257
18/10/2020 0:10 -1.6 97 0.0 0 0.0 0.0 0.0 0
18/10/2020 0:20 -1.7 97 0.0 0 0.0 0.0 0.0 0
18/10/2020 0:30 -1.7 97 0.0 0 0.0 0.0 0.0 0
18/10/2020 0:40 -1.8 97 0.0 0 0.0 0.0 0.0 0
18/10/2020 0:50 -1.9 97 0.0 0 0.0 0.0 0.0 0
18/10/2020 1:00 -2.2 97 0.0 0 0.0 0.0 0.0 0
18/10/2020 1:10 -2.0 97 0.0 0 0.0 0.0 0.0 243
18/10/2020 1:20 -2.2 97 0.0 0 0.0 0.0 0.0 243
18/10/2020 1:30 -2.2 97 0.0 0 0.0 0.0 0.0 243
18/10/2020 1:40 -2.3 97 0.0 0 0.0 0.0 0.0 243
18/10/2020 1:50 -2.3 97 0.0 0 0.0 0.0 0.0 243
18/10/2020 2:00 -2.2 98 0.0 0 0.0 0.0 0.0 244
18/10/2020 2:10 -2.1 98 0.0 0 0.0 0.0 0.0 243
18/10/2020 2:20 -2.2 97 0.0 0 0.0 0.1 0.2 54
18/10/2020 2:30 -2.1 98 0.0 0 0.0 0.4 1.5 257
18/10/2020 2:40 -2.1 98 0.0 0 0.0 0.0 0.0 0
18/10/2020 2:50 -2.2 97 0.0 0 0.0 0.0 0.0 0
18/10/2020 3:00 -2.2 98 0.0 0 0.0 0.0 0.0 0
18/10/2020 3:10 -2.3 97 0.0 0 0.0 0.0 0.0 0
18/10/2020 3:20 -2.4 98 0.0 0 0.0 0.1 0.4 250
18/10/2020 3:30 -2.3 97 0.0 0 0.0 0.0 0.0 0
18/10/2020 3:40 -2.2 98 0.0 0 0.0 0.0 0.0 0
18/10/2020 3:50 -2.4 98 0.0 0 0.0 0.0 0.0 0
18/10/2020 4:00 -2.5 98 0.0 0 0.0 0.0 0.0 0
18/10/2020 4:10 -2.5 97 0.0 0 0.0 0.0 0.0 0
18/10/2020 4:20 -2.5 97 0.0 0 0.0 0.0 0.0 0
18/10/2020 4:30 -2.6 97 0.0 0 0.0 0.0 0.0 3
18/10/2020 4:40 -2.6 97 0.0 0 0.0 0.0 0.0 3
18/10/2020 4:50 -2.6 97 0.0 0 0.0 0.0 0.0 3
18/10/2020 5:00 -2.6 97 0.0 0 0.0 0.0 0.0 3
18/10/2020 5:10 -2.6 97 0.0 0 0.0 - - - - - -
18/10/2020 5:20 -2.5 97 0.0 0 0.0 - - - - - -
18/10/2020 5:30 -2.4 97 0.0 0 0.0 0.0 0.0 3
18/10/2020 5:40 -2.6 97 0.0 0 0.0 0.0 0.0 3
18/10/2020 5:50 -2.6 97 0.0 0 0.0 0.0 0.0 3
18/10/2020 6:00 -2.5 97 0.0 0 0.0 0.1 0.4 251
18/10/2020 6:10 -2.2 97 0.0 0 0.0 0.2 0.6 253
18/10/2020 6:20 -2.3 97 0.0 0 0.0 0.0 0.0 0
18/10/2020 6:30 -2.4 97 0.0 0 0.0 0.0 0.0 0
18/10/2020 6:40 -2.4 97 2.2 0 0.0 0.0 0.0 0
18/10/2020 6:50 -2.3 97 20.3 0 0.0 0.1 0.5 44
18/10/2020 7:00 -1.9 97 30.4 0 0.0 0.2 0.6 7
18/10/2020 7:10 -1.8 97 43.9 0 0.0 0.5 1.9 255
18/10/2020 7:20 -1.6 97 73.5 318 0.0 0.0 0.0 0
18/10/2020 7:30 -1.2 97 99.3 516 0.0 0.0 0.0 0
18/10/2020 7:40 -0.7 97 160.1 600 0.0 0.0 0.0 0
18/10/2020 7:50 -0.1 97 136.9 600 0.0 0.0 0.1 144
18/10/2020 8:00 0.3 97 148.5 526 0.0 0.2 0.6 100
18/10/2020 8:10 1.3 97 297.9 600 0.0 0.1 0.4 94
18/10/2020 8:20 2.4 97 336.0 600 0.0 0.1 0.4 91
18/10/2020 8:30 3.4 97 362.1 600 0.0 0.1 0.4 152
18/10/2020 8:40 4.3 96 317.8 558 0.0 0.0 0.0 198
18/10/2020 8:50 4.9 94 191.9 120 0.0 0.3 1.0 195
18/10/2020 9:00 5.1 93 190.0 76 0.0 0.0 0.0 0
18/10/2020 9:10 5.3 94 268.8 410 0.0 0.0 0.1 99
18/10/2020 9:20 7.3 92 481.6 600 0.0 0.1 0.3 103
18/10/2020 9:30 9.1 80 467.0 600 0.0 0.1 0.5 189
18/10/2020 9:40 10.0 76 470.5 600 0.0 0.1 0.2 161
18/10/2020 9:50 11.6 68 502.5 600 0.0 0.4 1.4 146
18/10/2020 10:00 12.5 64 545.4 600 0.0 0.3 1.2 163
18/10/2020 10:10 14.0 61 585.3 600 0.0 0.7 2.4 129
18/10/2020 10:20 14.7 60 580.1 600 0.0 0.5 1.9 34
18/10/2020 10:30 14.8 56 594.1 600 0.0 0.9 3.3 347
18/10/2020 10:40 14.5 56 601.2 600 0.0 1.2 4.3 330
18/10/2020 10:50 15.0 56 609.4 600 0.0 1.5 5.2 344
18/10/2020 11:00 15.1 55 621.4 600 0.0 1.0 3.7 340
18/10/2020 11:10 15.4 56 628.9 600 0.0 1.6 5.6 331
18/10/2020 11:20 15.2 55 636.4 600 0.0 1.7 6.0 335
18/10/2020 11:30 15.4 55 642.8 600 0.0 1.6 5.9 332
18/10/2020 11:40 15.6 55 637.7 600 0.0 1.7 6.1 341
18/10/2020 11:50 15.4 57 650.3 600 0.0 1.9 6.9 327
18/10/2020 12:00 15.2 57 644.5 600 0.0 1.8 6.6 333
18/10/2020 12:10 15.5 55 619.9 600 0.0 1.5 5.5 322
18/10/2020 12:20 15.8 54 631.7 600 0.0 1.3 4.8 334
18/10/2020 12:30 16.0 52 591.0 600 0.0 1.4 5.0 308
18/10/2020 12:40 16.0 53 568.3 600 0.0 1.3 4.8 324
18/10/2020 12:50 15.9 53 548.3 600 0.0 1.6 5.7 321
18/10/2020 13:00 16.0 51 567.9 600 0.0 1.4 5.0 312
18/10/2020 13:10 16.4 48 561.2 600 0.0 1.6 5.7 312
18/10/2020 13:20 16.2 49 524.4 600 0.0 1.2 4.3 305
18/10/2020 13:30 16.6 50 523.6 600 0.0 0.9 3.3 297
18/10/2020 13:40 16.5 50 461.1 600 0.0 1.3 4.8 283
18/10/2020 13:50 16.4 50 454.5 600 0.0 1.0 3.6 311
18/10/2020 14:00 16.9 50 390.1 554 0.0 1.0 3.7 334
18/10/2020 14:10 16.6 51 493.1 600 0.0 1.3 4.6 328
18/10/2020 14:20 16.7 48 443.0 600 0.0 1.4 4.9 327
18/10/2020 14:30 16.9 49 392.6 600 0.0 1.0 3.6 347
18/10/2020 14:40 16.9 51 282.0 488 0.0 1.1 3.9 36
18/10/2020 14:50 16.8 53 255.5 444 0.0 1.6 5.7 151
18/10/2020 15:00 16.6 53 279.4 372 0.0 2.0 7.2 155
18/10/2020 15:10 16.2 55 180.4 164 0.0 1.6 5.8 153
18/10/2020 15:20 15.9 55 154.7 0 0.0 1.6 5.8 152
18/10/2020 15:30 15.6 57 116.0 30 0.0 1.6 5.7 154
18/10/2020 15:40 15.4 59 196.0 600 0.0 1.4 5.0 172
18/10/2020 15:50 15.4 58 242.5 600 0.0 1.5 5.4 152
18/10/2020 16:00 15.4 57 232.3 600 0.0 1.9 6.9 161
18/10/2020 16:10 15.4 58 186.9 600 0.0 1.2 4.3 152
18/10/2020 16:20 15.3 59 154.8 600 0.0 1.6 5.8 144
18/10/2020 16:30 15.1 59 118.8 600 0.0 1.1 4.0 156
18/10/2020 16:40 13.8 69 88.3 600 0.0 0.2 0.8 128
18/10/2020 16:50 12.0 79 58.0 576 0.0 0.0 0.0 251
18/10/2020 17:00 11.2 82 27.1 290 0.0 0.1 0.3 269
18/10/2020 17:10 10.6 84 0.0 0 0.0 0.1 0.3 254
18/10/2020 17:20 10.0 86 0.0 0 0.0 0.0 0.0 0
18/10/2020 17:30 9.3 88 0.0 0 0.0 0.4 1.3 245
18/10/2020 17:40 8.5 90 0.0 0 0.0 0.0 0.0 253
18/10/2020 17:50 8.0 91 0.0 0 0.0 0.0 0.0 0
18/10/2020 18:00 7.5 92 0.0 0 0.0 0.0 0.0 0
18/10/2020 18:10 7.1 92 0.0 0 0.0 0.0 0.0 0
18/10/2020 18:20 6.6 93 0.0 0 0.0 0.1 0.2 263
18/10/2020 18:30 6.3 94 0.0 0 0.0 0.2 0.9 261
18/10/2020 18:40 5.8 95 0.0 0 0.0 0.1 0.4 122
18/10/2020 18:50 5.4 95 0.0 0 0.0 0.0 0.0 88
18/10/2020 19:00 5.3 95 0.0 0 0.0 0.0 0.0 0
18/10/2020 19:10 4.9 95 0.0 0 0.0 0.0 0.0 0
18/10/2020 19:20 4.7 95 0.0 0 0.0 0.1 0.4 176
18/10/2020 19:30 4.4 96 0.0 0 0.0 0.0 0.1 171
18/10/2020 19:40 4.3 96 0.0 0 0.0 0.0 0.0 0
18/10/2020 19:50 4.0 96 0.0 0 0.0 0.0 0.0 0
18/10/2020 20:00 3.8 96 0.0 0 0.0 0.0 0.0 0
18/10/2020 20:10 3.5 96 0.0 0 0.0 0.0 0.0 0
18/10/2020 20:20 3.3 96 0.0 0 0.0 0.0 0.0 0
18/10/2020 20:30 3.0 96 0.0 0 0.0 0.0 0.0 0
18/10/2020 20:40 3.0 96 0.0 0 0.0 0.0 0.0 96
18/10/2020 20:50 2.8 96 0.0 0 0.0 0.0 0.0 96
18/10/2020 21:00 2.5 96 0.0 0 0.0 0.0 0.0 96
18/10/2020 21:10 2.4 96 0.0 0 0.0 0.0 0.0 96
18/10/2020 21:20 2.2 97 0.0 0 0.0 0.3 1.1 70
18/10/2020 21:30 2.0 96 0.0 0 0.0 0.2 0.7 53
18/10/2020 21:40 2.0 97 0.0 0 0.0 0.2 0.8 70
18/10/2020 21:50 2.2 97 0.0 0 0.0 0.2 0.7 96
18/10/2020 22:00 2.0 97 0.0 0 0.0 0.3 1.0 83
18/10/2020 22:10 1.7 97 0.0 0 0.0 0.3 1.2 78
18/10/2020 22:20 1.7 97 0.0 0 0.0 0.0 0.0 0
18/10/2020 22:30 1.6 97 0.0 0 0.0 0.5 1.8 102
18/10/2020 22:40 1.6 97 0.0 0 0.0 1.0 3.6 93
18/10/2020 22:50 1.8 97 0.0 0 0.0 1.0 3.5 89
18/10/2020 23:00 1.9 97 0.0 0 0.0 0.8 2.8 75
18/10/2020 23:10 1.9 97 0.0 0 0.0 0.9 3.3 74
18/10/2020 23:20 2.1 98 0.0 0 0.0 1.3 4.5 93
18/10/2020 23:30 2.5 98 0.0 0 0.0 1.6 5.8 98
18/10/2020 23:40 3.3 98 0.0 0 0.0 1.8 6.4 110
18/10/2020 23:50 3.5 97 0.0 0 0.0 1.8 6.6 106
Anterior Página 1 de 1 Siguiente

NOTA: Tipo de datos según el color:
   - Valores diarios o 10 minutos correctos
   - Valores diarios calculados a partir de un número de datos 10 minutos menor que 144 y mayor que 120, o de un número de datos semihorarios menor que 48 y mayor que 40 (caso de las estaciones de INTIA Y Ministerio)
   - Valores diez minutos estimados


Contacto        Enlaces        Aviso legal